Time;durP1;ratioP1;P1;durP2;ratioP2;P2;SDS_P1;SDS_P2;PMS_P1;PMS_P2;Temp;Humidity;BMP_temperature;BMP_pressure;BME280_temperature;BME280_humidity;BME280_pressure;Samples;Min_cycle;Max_cycle;Signal;HPM_P1;HPM_P2
2024/01/16 15:53:40;;;;;;;34.33;16.58;;;-0.30;99.90;;;;;;5101135;27;20341;-53
2024/01/16 15:56:06;;;;;;;46.67;19.07;;;-0.40;99.90;;;;;;5108274;28;20035;-54
2024/01/16 15:58:32;;;;;;;43.73;18.97;;;-0.40;99.90;;;;;;5109122;28;20023;-51
2024/01/16 16:00:58;;;;;;;48.65;20.05;;;-0.40;99.90;;;;;;5107220;28;20103;-47
2024/01/16 16:03:25;;;;;;;54.15;20.65;;;-0.40;99.90;;;;;;5106000;28;20036;-47
2024/01/16 16:05:53;;;;;;;61.28;22.50;;;-0.50;99.90;;;;;;5106652;28;20248;-49
2024/01/16 16:08:23;;;;;;;59.65;20.88;;;-0.50;99.90;;;;;;5108821;28;20042;-49
2024/01/16 16:10:48;;;;;;;66.15;23.65;;;-0.50;99.90;;;;;;5109082;28;20051;-51
2024/01/16 16:13:14;;;;;;;49.95;19.90;;;-0.50;99.90;;;;;;5109763;28;20062;-50
2024/01/16 16:15:41;;;;;;;45.30;18.35;;;-0.50;99.90;;;;;;5109506;28;20405;-48
2024/01/16 16:18:07;;;;;;;28.15;14.07;;;-0.40;99.90;;;;;;5109344;28;20435;-51
2024/01/16 16:20:33;;;;;;;48.55;20.15;;;-0.50;99.90;;;;;;5112355;28;20028;-50
2024/01/16 16:22:59;;;;;;;38.03;16.73;;;-0.60;99.90;;;;;;5115021;28;20433;-49
2024/01/16 16:25:24;;;;;;;30.45;13.45;;;-0.60;99.90;;;;;;5106924;28;20062;-48
2024/01/16 16:27:50;;;;;;;23.95;12.25;;;-0.70;99.90;;;;;;5106980;28;20028;-46
2024/01/16 16:30:16;;;;;;;26.88;12.77;;;-0.70;99.90;;;;;;5107242;28;20591;-54
2024/01/16 16:32:41;;;;;;;24.45;12.10;;;-0.70;99.90;;;;;;5106484;28;20043;-51
2024/01/16 16:35:07;;;;;;;23.58;11.68;;;-0.70;99.90;;;;;;5105774;28;20035;-49
2024/01/16 16:37:33;;;;;;;30.52;12.18;;;-0.70;99.90;;;;;;5105786;28;20028;-47
2024/01/16 16:39:59;;;;;;;25.63;13.73;;;-0.70;99.90;;;;;;5106331;28;20032;-52
2024/01/16 16:42:27;;;;;;;30.60;15.23;;;-0.60;99.90;;;;;;5111451;28;20375;-53
2024/01/16 16:44:54;;;;;;;29.13;16.38;;;-0.70;99.90;;;;;;5113070;28;20049;-49
2024/01/16 16:47:20;;;;;;;38.47;19.50;;;-0.70;99.90;;;;;;5105987;28;20028;-50
2024/01/16 16:49:46;;;;;;;41.42;19.73;;;-0.70;99.90;;;;;;5105744;28;20028;-51
2024/01/16 16:52:11;;;;;;;41.40;22.35;;;-0.70;99.90;;;;;;5106093;28;20140;-50
2024/01/16 16:54:37;;;;;;;48.35;23.90;;;-0.70;99.90;;;;;;5106339;28;20027;-52
2024/01/16 16:57:03;;;;;;;40.85;20.10;;;-0.80;99.90;;;;;;5106530;28;20099;-55
2024/01/16 16:59:29;;;;;;;48.58;22.75;;;-0.70;99.90;;;;;;5104813;28;20024;-52
2024/01/16 17:01:54;;;;;;;44.72;24.55;;;-0.80;99.90;;;;;;5106113;28;20019;-47
2024/01/16 17:04:21;;;;;;;31.48;15.65;;;-1.00;99.90;;;;;;5097306;28;20086;-53
2024/01/16 17:06:47;;;;;;;45.47;21.42;;;-1.20;99.90;;;;;;5092367;28;20020;-52
2024/01/16 17:09:12;;;;;;;58.15;25.40;;;-1.40;99.90;;;;;;5093964;28;20467;-49
2024/01/16 17:11:41;;;;;;;45.10;23.23;;;-1.30;99.90;;;;;;5093979;28;20108;-52
2024/01/16 17:14:07;;;;;;;47.22;20.75;;;-1.20;99.90;;;;;;5091360;28;20032;-50
2024/01/16 17:16:32;;;;;;;47.63;22.92;;;-1.20;99.90;;;;;;5075381;28;20028;-49
2024/01/16 17:18:58;;;;;;;47.05;23.08;;;-1.40;99.90;;;;;;5070299;28;20028;-50
2024/01/16 17:21:24;;;;;;;85.90;33.05;;;-1.60;99.90;;;;;;5070289;28;20024;-50
2024/01/16 17:23:50;;;;;;;100.82;39.40;;;-1.60;99.90;;;;;;5070156;28;20111;-48
2024/01/16 17:26:15;;;;;;;97.55;40.33;;;-1.80;99.90;;;;;;5074602;28;20013;-49
2024/01/16 17:28:41;;;;;;;82.88;36.35;;;-1.90;99.90;;;;;;5079318;28;20036;-50
2024/01/16 17:31:12;;;;;;;82.60;35.83;;;-1.90;99.90;;;;;;5070906;28;20025;-49
2024/01/16 17:33:38;;;;;;;68.90;30.73;;;-1.90;99.90;;;;;;5069749;28;20170;-51
2024/01/16 17:36:10;;;;;;;69.93;30.48;;;-2.00;99.90;;;;;;5070639;28;20124;-49
2024/01/16 17:38:36;;;;;;;72.57;31.48;;;-2.10;99.90;;;;;;5069904;28;20024;-46
2024/01/16 17:41:04;;;;;;;87.07;35.67;;;-2.00;99.90;;;;;;5069089;28;20027;-46
2024/01/16 17:43:30;;;;;;;87.00;33.28;;;-2.10;99.90;;;;;;5068835;28;20469;-50
2024/01/16 17:45:56;;;;;;;64.00;29.42;;;-2.10;99.90;;;;;;5068055;28;20029;-48
2024/01/16 17:48:23;;;;;;;70.10;31.50;;;-2.10;99.90;;;;;;5067964;28;20070;-52
2024/01/16 17:50:49;;;;;;;67.82;31.35;;;-2.10;99.90;;;;;;5068892;28;20028;-51
2024/01/16 17:53:15;;;;;;;70.43;33.03;;;-2.00;99.90;;;;;;5069450;28;20055;-48
2024/01/16 17:55:43;;;;;;;67.90;31.00;;;-2.10;99.90;;;;;;5068847;28;20189;-49
2024/01/16 17:58:10;;;;;;;86.38;35.70;;;-2.10;99.90;;;;;;5068060;28;20031;-49
2024/01/16 18:00:36;;;;;;;;;;;-2.00;99.90;;;;;;5068325;28;20479;-48
2024/01/16 18:03:03;;;;;;;55.00;25.13;;;-2.00;99.90;;;;;;5069019;28;20236;-47
2024/01/16 18:05:29;;;;;;;55.75;24.40;;;-2.20;99.90;;;;;;5068971;28;20365;-45
2024/01/16 18:07:59;;;;;;;59.65;24.80;;;-2.20;99.90;;;;;;5069977;28;20572;-50
2024/01/16 18:10:26;;;;;;;60.50;25.20;;;-2.20;99.90;;;;;;5069896;28;20597;-51
2024/01/16 18:12:52;;;;;;;72.78;30.35;;;-2.30;99.90;;;;;;5069900;28;20048;-46
2024/01/16 18:15:18;;;;;;;77.50;32.15;;;-2.20;99.90;;;;;;5068768;28;20029;-51
2024/01/16 18:17:49;;;;;;;86.30;33.20;;;-2.30;99.90;;;;;;5072117;28;20082;-63
2024/01/16 18:20:16;;;;;;;86.22;37.55;;;-2.30;99.90;;;;;;5079593;28;20491;-48
2024/01/16 18:22:55;;;;;;;94.28;39.95;;;-2.40;99.90;;;;;;5069757;28;20440;-52
2024/01/16 18:25:32;;;;;;;116.70;49.15;;;-2.40;99.90;;;;;;5069232;28;20367;-47
2024/01/16 18:27:59;;;;;;;95.83;41.80;;;-2.40;99.90;;;;;;5069540;28;20093;-50
2024/01/16 18:30:26;;;;;;;90.97;39.00;;;-2.40;99.90;;;;;;5069376;28;20108;-49
2024/01/16 18:32:54;;;;;;;92.93;38.63;;;-2.50;99.90;;;;;;5069108;28;20372;-50
2024/01/16 18:35:20;;;;;;;78.90;35.35;;;-2.50;99.90;;;;;;5069497;28;20032;-50
2024/01/16 18:37:55;;;;;;;81.82;36.58;;;-2.60;99.90;;;;;;5069382;28;20383;-52
2024/01/16 18:40:22;;;;;;;91.82;37.03;;;-2.60;99.90;;;;;;5068982;28;20439;-50
2024/01/16 18:42:48;;;;;;;90.65;38.13;;;-2.70;99.90;;;;;;5071939;28;20139;-52
2024/01/16 18:45:15;;;;;;;78.82;34.85;;;-2.80;99.90;;;;;;5087015;28;20032;-51
2024/01/16 18:47:43;;;;;;;96.15;40.65;;;-2.80;99.90;;;;;;5070470;28;20139;-48
2024/01/16 18:50:09;;;;;;;104.57;42.35;;;-2.90;99.90;;;;;;5069327;28;20391;-47
2024/01/16 18:52:43;;;;;;;108.53;44.60;;;-2.90;99.90;;;;;;5069055;28;20143;-50
2024/01/16 18:55:11;;;;;;;109.03;42.75;;;-2.90;99.90;;;;;;5069164;28;20704;-52
2024/01/16 18:57:40;;;;;;;107.50;41.63;;;-2.90;99.90;;;;;;5069245;28;20036;-49
2024/01/16 19:00:13;;;;;;;93.00;37.63;;;-3.00;99.90;;;;;;5069010;28;20107;-48
2024/01/16 19:02:43;;;;;;;97.38;40.08;;;-3.00;99.90;;;;;;5068906;28;20032;-48
2024/01/16 19:05:11;;;;;;;103.45;40.55;;;-3.00;99.90;;;;;;5069074;28;20033;-49
2024/01/16 19:07:42;;;;;;;100.50;41.15;;;-3.00;99.90;;;;;;5068393;28;20063;-50
2024/01/16 19:10:15;;;;;;;107.90;40.42;;;-2.90;99.90;;;;;;5067682;28;20287;-48
2024/01/16 19:12:48;;;;;;;110.90;42.13;;;-2.80;99.90;;;;;;5068212;28;20044;-48
2024/01/16 19:15:19;;;;;;;122.03;47.50;;;-2.70;99.90;;;;;;5068220;28;20043;-51
2024/01/16 19:17:50;;;;;;;136.23;50.47;;;-2.70;99.90;;;;;;5067718;28;20081;-48
2024/01/16 19:20:16;;;;;;;127.20;50.42;;;-2.60;99.90;;;;;;5068057;28;20448;-47
2024/01/16 19:22:43;;;;;;;135.35;51.35;;;-2.70;99.90;;;;;;5066578;28;20416;-47
2024/01/16 19:25:11;;;;;;;140.63;52.80;;;-2.70;99.90;;;;;;5053366;28;20093;-49
2024/01/16 19:27:38;;;;;;;132.30;51.00;;;-2.70;99.90;;;;;;5047798;28;20037;-47
2024/01/16 19:30:07;;;;;;;130.02;51.08;;;-2.80;99.90;;;;;;5047106;28;20142;-49
2024/01/16 19:32:33;;;;;;;123.90;52.05;;;-2.90;99.90;;;;;;5047329;28;20049;-46
2024/01/16 19:34:59;;;;;;;147.68;57.25;;;-2.90;99.90;;;;;;5047211;28;20040;-48
2024/01/16 19:37:24;;;;;;;125.07;51.55;;;-3.00;99.90;;;;;;5044695;28;20029;-50
2024/01/16 19:39:50;;;;;;;117.43;46.85;;;-3.00;99.90;;;;;;5047545;28;20036;-51
2024/01/16 19:42:16;;;;;;;115.03;45.88;;;-3.10;99.90;;;;;;5047651;28;20029;-54
2024/01/16 19:44:41;;;;;;;113.80;46.40;;;-3.00;99.90;;;;;;5047525;28;20120;-46
2024/01/16 19:47:10;;;;;;;115.90;44.55;;;-2.90;99.90;;;;;;5047549;28;20047;-50
2024/01/16 19:49:38;;;;;;;111.45;45.03;;;-2.80;99.90;;;;;;5047089;28;20033;-47
2024/01/16 19:52:05;;;;;;;104.68;42.13;;;-2.90;99.90;;;;;;5046983;28;20075;-49
2024/01/16 19:54:32;;;;;;;112.80;45.45;;;-2.80;99.90;;;;;;5047283;28;20095;-48
2024/01/16 19:56:58;;;;;;;109.18;43.42;;;-2.80;99.90;;;;;;5078921;28;20033;-50
2024/01/16 19:59:25;;;;;;;107.03;43.08;;;-2.90;99.90;;;;;;5046492;28;20017;-50
2024/01/16 20:01:51;;;;;;;100.20;40.42;;;-2.80;99.90;;;;;;5047058;28;20159;-49
2024/01/16 20:04:18;;;;;;;107.82;42.53;;;-2.90;99.90;;;;;;5046933;28;20476;-51
2024/01/16 20:06:50;;;;;;;95.73;41.00;;;-2.90;99.90;;;;;;5046972;28;20029;-49
2024/01/16 20:09:18;;;;;;;88.10;36.05;;;-2.80;99.90;;;;;;5053600;28;20032;-52
2024/01/16 20:11:46;;;;;;;92.75;37.45;;;-2.70;99.90;;;;;;5066764;28;20123;-46
2024/01/16 20:14:12;;;;;;;91.13;36.75;;;-2.70;99.90;;;;;;5067019;28;20068;-53
2024/01/16 20:16:39;;;;;;;102.22;39.40;;;-2.90;99.90;;;;;;5066534;28;20070;-50
2024/01/16 20:19:06;;;;;;;84.00;35.83;;;-2.80;99.90;;;;;;5066752;28;20103;-51
2024/01/16 20:21:33;;;;;;;89.22;37.33;;;-2.70;99.90;;;;;;5066260;28;20038;-53
2024/01/16 20:23:58;;;;;;;;;;;-2.70;99.90;;;;;;5067138;28;20090;-49
2024/01/16 20:26:25;;;;;;;102.95;38.63;;;-2.70;99.90;;;;;;5065336;28;20078;-49
2024/01/16 20:28:51;;;;;;;92.28;38.67;;;-2.50;99.90;;;;;;5066623;28;20357;-50
2024/01/16 20:31:17;;;;;;;89.60;36.22;;;-2.40;99.90;;;;;;5066939;28;20468;-51
2024/01/16 20:33:48;;;;;;;84.75;35.15;;;-2.40;99.90;;;;;;5066076;28;20127;-53
2024/01/16 20:36:18;;;;;;;89.88;36.05;;;-2.40;99.90;;;;;;5066450;28;20041;-51
2024/01/16 20:38:44;;;;;;;91.72;36.22;;;-2.20;99.90;;;;;;5067249;28;20101;-51
2024/01/16 20:41:10;;;;;;;84.00;38.17;;;-2.30;99.90;;;;;;5070237;28;20021;-50
2024/01/16 20:43:37;;;;;;;88.43;35.25;;;-2.20;99.90;;;;;;5070308;28;20757;-53
2024/01/16 20:46:06;;;;;;;99.00;39.03;;;-2.20;99.90;;;;;;5070430;28;20040;-49
2024/01/16 20:48:32;;;;;;;89.57;38.65;;;-2.20;99.90;;;;;;5069955;28;20079;-51
2024/01/16 20:51:01;;;;;;;95.05;37.60;;;-2.20;99.90;;;;;;5069852;28;20424;-48
2024/01/16 20:53:28;;;;;;;96.50;37.17;;;-2.20;99.90;;;;;;5068293;28;20049;-49
2024/01/16 20:55:55;;;;;;;96.60;37.58;;;-2.10;99.90;;;;;;5069498;28;20028;-47
2024/01/16 20:58:21;;;;;;;;;;;-2.10;99.90;;;;;;5070144;28;20529;-51
2024/01/16 21:00:47;;;;;;;94.03;39.10;;;-2.00;99.90;;;;;;5069900;28;19931;-50
2024/01/16 21:03:21;;;;;;;115.30;40.17;;;-2.00;99.90;;;;;;5069641;28;20450;-52
2024/01/16 21:05:48;;;;;;;100.13;39.42;;;-2.00;99.90;;;;;;5077856;28;20099;-48
2024/01/16 21:08:17;;;;;;;106.50;39.33;;;-2.00;99.90;;;;;;5074699;28;20032;-48
2024/01/16 21:10:44;;;;;;;99.75;38.30;;;-2.00;99.90;;;;;;5070008;28;20021;-52
2024/01/16 21:13:12;;;;;;;98.53;38.00;;;-2.10;99.90;;;;;;5069581;28;20059;-47
2024/01/16 21:15:38;;;;;;;96.03;40.15;;;-2.10;99.90;;;;;;5069500;28;20130;-53
2024/01/16 21:18:04;;;;;;;102.47;37.90;;;-2.10;99.90;;;;;;5070484;28;20383;-50
2024/01/16 21:20:29;;;;;;;94.22;38.33;;;-2.00;99.90;;;;;;5070639;28;20052;-48
2024/01/16 21:22:55;;;;;;;95.72;38.30;;;-2.00;99.90;;;;;;5073875;28;20062;-48
2024/01/16 21:25:24;;;;;;;103.47;39.58;;;-2.00;99.90;;;;;;5073304;28;20027;-49
2024/01/16 21:27:50;;;;;;;104.13;39.75;;;-2.00;99.90;;;;;;5075189;28;20025;-52
2024/01/16 21:30:16;;;;;;;104.27;40.07;;;-2.00;99.90;;;;;;5074688;28;20467;-48
2024/01/16 21:32:42;;;;;;;117.85;41.40;;;-2.10;99.90;;;;;;5070178;28;20032;-48
2024/01/16 21:35:12;;;;;;;100.63;40.95;;;-2.20;99.90;;;;;;5069733;28;20082;-50
2024/01/16 21:37:39;;;;;;;106.43;41.90;;;-2.10;99.90;;;;;;5068576;28;20052;-50
2024/01/16 21:40:07;;;;;;;99.60;40.97;;;-2.10;99.90;;;;;;5069441;28;20120;-52
2024/01/16 21:42:34;;;;;;;108.05;39.47;;;-2.10;99.90;;;;;;5069616;28;20055;-51
2024/01/16 21:45:00;;;;;;;;;;;-2.10;99.90;;;;;;5069871;28;20067;-53
2024/01/16 21:47:26;;;;;;;104.35;39.83;;;-2.10;99.90;;;;;;5068818;28;19908;-52
2024/01/16 21:49:52;;;;;;;105.72;41.33;;;-2.10;99.90;;;;;;5068708;28;20028;-51
2024/01/16 21:52:18;;;;;;;103.50;40.53;;;-2.10;99.90;;;;;;5069651;28;20048;-48
2024/01/16 21:54:44;;;;;;;101.68;39.95;;;-2.10;99.90;;;;;;5069698;28;20036;-48
2024/01/16 21:57:10;;;;;;;98.97;39.72;;;-2.10;99.90;;;;;;5069170;28;20456;-50
2024/01/16 21:59:35;;;;;;;97.75;39.17;;;-2.10;99.90;;;;;;5069062;28;20021;-51
2024/01/16 22:02:01;;;;;;;84.05;34.65;;;-2.10;99.90;;;;;;5069217;28;20040;-52
2024/01/16 22:04:27;;;;;;;81.75;34.08;;;-2.00;99.90;;;;;;5069230;28;20039;-50
2024/01/16 22:06:53;;;;;;;76.32;31.90;;;-2.00;99.90;;;;;;5061932;28;20469;-51
2024/01/16 22:09:25;;;;;;;78.63;34.45;;;-2.00;99.90;;;;;;5048883;28;20029;-48
2024/01/16 22:11:51;;;;;;;74.82;32.05;;;-2.00;99.90;;;;;;5048653;28;20049;-51
2024/01/16 22:14:17;;;;;;;81.65;32.63;;;-2.00;99.90;;;;;;5065420;28;20032;-50
2024/01/16 22:16:43;;;;;;;79.15;31.60;;;-2.00;99.90;;;;;;5067144;28;20032;-49
2024/01/16 22:19:09;;;;;;;77.07;30.67;;;-1.90;99.90;;;;;;5066651;28;20029;-52
2024/01/16 22:21:34;;;;;;;80.15;32.72;;;-1.90;99.90;;;;;;5066638;28;20635;-51
2024/01/16 22:24:00;;;;;;;99.57;34.05;;;-1.90;99.90;;;;;;5066794;28;20066;-50
2024/01/16 22:26:26;;;;;;;84.60;35.17;;;-1.80;99.90;;;;;;5064700;28;20383;-48
2024/01/16 22:28:51;;;;;;;86.77;33.87;;;-1.90;99.90;;;;;;5048345;28;20033;-48
2024/01/16 22:31:17;;;;;;;83.90;33.27;;;-1.90;99.90;;;;;;5048716;28;20420;-50
2024/01/16 22:33:42;;;;;;;77.75;33.92;;;-1.90;99.90;;;;;;5047917;28;20026;-51
2024/01/16 22:36:11;;;;;;;87.25;32.95;;;-2.00;99.90;;;;;;5048278;28;20105;-51
2024/01/16 22:38:37;;;;;;;85.75;35.15;;;-2.00;99.90;;;;;;5048170;28;20032;-50
2024/01/16 22:41:04;;;;;;;91.97;35.00;;;-2.10;99.90;;;;;;5048289;28;20082;-49
2024/01/16 22:43:30;;;;;;;85.35;32.22;;;-2.20;99.90;;;;;;5047748;28;20029;-49
2024/01/16 22:45:56;;;;;;;90.05;34.40;;;-2.30;99.90;;;;;;5048260;28;20100;-51
2024/01/16 22:48:21;;;;;;;105.55;36.38;;;-2.30;99.90;;;;;;5047676;28;20108;-48
2024/01/16 22:50:49;;;;;;;90.85;33.13;;;-2.40;99.90;;;;;;5049195;28;20435;-47
2024/01/16 22:53:15;;;;;;;92.55;35.97;;;-2.40;99.90;;;;;;5067524;28;20115;-47
2024/01/16 22:55:45;;;;;;;98.43;34.25;;;-2.50;99.90;;;;;;5066471;28;20111;-50
2024/01/16 22:58:11;;;;;;;95.60;33.55;;;-2.50;99.90;;;;;;5067301;28;20072;-46
2024/01/16 23:00:39;;;;;;;88.45;34.30;;;-2.60;99.90;;;;;;5067705;28;20063;-48
2024/01/16 23:03:09;;;;;;;95.40;34.35;;;-2.60;99.90;;;;;;5084130;28;20055;-51
2024/01/16 23:05:36;;;;;;;85.80;33.30;;;-2.70;99.90;;;;;;5066973;28;20027;-48
2024/01/16 23:08:09;;;;;;;83.75;33.47;;;-2.70;99.90;;;;;;5067327;28;20028;-53
2024/01/16 23:10:36;;;;;;;96.55;36.75;;;-2.70;99.90;;;;;;5067539;28;20040;-50
2024/01/16 23:13:02;;;;;;;84.75;30.45;;;-2.80;99.90;;;;;;5067255;28;20043;-52
2024/01/16 23:15:28;;;;;;;90.95;32.35;;;-2.80;99.90;;;;;;5066936;28;20054;-48
2024/01/16 23:17:53;;;;;;;76.53;28.25;;;-2.80;99.90;;;;;;5075307;28;20024;-48
2024/01/16 23:20:20;;;;;;;79.07;31.07;;;-2.70;99.90;;;;;;5078001;28;20020;-48
2024/01/16 23:22:46;;;;;;;82.82;32.22;;;-2.70;99.90;;;;;;5072880;28;20071;-50
2024/01/16 23:25:14;;;;;;;97.85;35.42;;;-2.80;99.90;;;;;;5076842;28;20032;-50
2024/01/16 23:27:42;;;;;;;81.90;32.95;;;-2.80;99.90;;;;;;5077150;28;20090;-48
2024/01/16 23:30:10;;;;;;;92.28;35.17;;;-2.90;99.90;;;;;;5084683;28;20092;-48
2024/01/16 23:32:37;;;;;;;84.38;34.30;;;-2.90;99.90;;;;;;5078958;28;20483;-50
2024/01/16 23:35:05;;;;;;;;;;;-2.90;99.90;;;;;;5077409;28;20047;-51
2024/01/16 23:37:31;;;;;;;82.45;32.72;;;-2.90;99.90;;;;;;5075686;28;19912;-49
2024/01/16 23:39:57;;;;;;;83.50;31.77;;;-2.90;99.90;;;;;;5076649;28;20028;-49
2024/01/16 23:42:26;;;;;;;79.00;34.10;;;-2.90;99.90;;;;;;5078233;28;20447;-49
2024/01/16 23:44:53;;;;;;;81.82;33.78;;;-2.80;99.90;;;;;;5077275;28;20047;-52
2024/01/16 23:47:19;;;;;;;;;;;-2.80;99.90;;;;;;5075723;28;20035;-50
2024/01/16 23:49:45;;;;;;;75.72;31.50;;;-2.80;99.90;;;;;;5078108;28;19927;-53
2024/01/16 23:52:13;;;;;;;89.60;34.90;;;-2.80;99.90;;;;;;5076644;28;20074;-51
2024/01/16 23:54:39;;;;;;;80.35;33.97;;;-2.90;99.90;;;;;;5071746;28;20045;-51
2024/01/16 23:57:05;;;;;;;62.22;24.83;;;-2.90;99.90;;;;;;5074308;28;20016;-46
2024/01/16 23:59:31;;;;;;;77.10;29.90;;;-2.80;99.90;;;;;;5070750;28;20029;-50
